createdAt,value
2022-08-07T00:00:50.650Z,25.40
2022-08-07T00:03:47.630Z,25.40
2022-08-07T00:06:51.300Z,25.40
2022-08-07T00:09:59.285Z,25.40
2022-08-07T00:13:02.166Z,25.40
2022-08-07T00:15:57.401Z,25.40
2022-08-07T00:18:51.270Z,25.50
2022-08-07T00:21:56.149Z,25.50
2022-08-07T00:24:51.185Z,25.40
2022-08-07T00:27:53.749Z,25.40
2022-08-07T00:30:49.892Z,25.40
2022-08-07T00:33:43.131Z,25.40
2022-08-07T00:36:43.307Z,25.40
2022-08-07T00:39:38.484Z,25.40
2022-08-07T00:42:39.032Z,25.50
2022-08-07T00:45:33.104Z,25.40
2022-08-07T00:48:30.949Z,25.50
2022-08-07T00:51:27.732Z,25.40
2022-08-07T00:54:41.725Z,25.40
2022-08-07T00:57:35.062Z,25.50
2022-08-07T01:00:29.697Z,25.50
2022-08-07T01:03:55.894Z,25.50
2022-08-07T01:06:37.728Z,25.50
2022-08-07T01:09:51.174Z,25.50
2022-08-07T01:12:53.503Z,25.50
2022-08-07T01:16:04.947Z,25.50
2022-08-07T01:18:59.829Z,25.40
2022-08-07T01:21:55.663Z,25.50
2022-08-07T01:24:49.050Z,25.50
2022-08-07T01:27:51.381Z,25.40
2022-08-07T01:30:46.192Z,25.40
2022-08-07T01:33:56.084Z,25.40
2022-08-07T01:36:57.625Z,25.50
2022-08-07T01:39:52.963Z,25.40
2022-08-07T01:42:57.272Z,25.50
2022-08-07T01:45:54.337Z,25.50
2022-08-07T01:48:49.674Z,25.40
2022-08-07T01:52:02.604Z,25.40
2022-08-07T01:55:02.024Z,25.40
2022-08-07T01:58:05.952Z,25.40
2022-08-07T02:01:09.900Z,25.40
2022-08-07T02:04:26.690Z,25.50
2022-08-07T02:07:22.961Z,25.40
2022-08-07T02:10:34.998Z,25.40
2022-08-07T02:13:56.381Z,25.40
2022-08-07T02:16:47.666Z,25.40
2022-08-07T02:20:07.241Z,25.40
2022-08-07T02:23:01.826Z,25.40
2022-08-07T02:26:31.302Z,25.40
2022-08-07T02:29:13.779Z,25.40
2022-08-07T02:32:09.446Z,25.40
2022-08-07T02:35:06.165Z,25.40
2022-08-07T02:38:04.685Z,25.40
2022-08-07T02:41:00.680Z,25.40
2022-08-07T02:43:55.142Z,25.40
2022-08-07T02:46:52.679Z,25.40
2022-08-07T02:49:56.431Z,25.40
2022-08-07T02:53:03.356Z,25.40
2022-08-07T02:56:03.153Z,25.40
2022-08-07T02:59:00.574Z,25.40
2022-08-07T03:01:55.469Z,25.40
2022-08-07T03:04:51.295Z,25.40
2022-08-07T03:08:05.325Z,25.40
2022-08-07T03:11:01.808Z,25.40
2022-08-07T03:13:57.505Z,25.40
2022-08-07T03:16:55.537Z,25.40
2022-08-07T03:19:54.446Z,25.40
2022-08-07T03:22:50.397Z,25.30
2022-08-07T03:25:46.735Z,25.40
2022-08-07T03:28:52.690Z,25.40
2022-08-07T03:31:50.028Z,25.40
2022-08-07T03:34:47.239Z,25.30
2022-08-07T03:37:58.425Z,25.30
2022-08-07T03:40:53.955Z,25.30
2022-08-07T03:43:57.206Z,25.30
2022-08-07T03:47:13.624Z,25.30
2022-08-07T03:50:05.892Z,25.30
2022-08-07T03:53:05.163Z,25.30
2022-08-07T03:56:04.334Z,25.30
2022-08-07T03:59:09.436Z,25.30
2022-08-07T04:02:06.372Z,25.30
2022-08-07T04:05:01.996Z,25.30
2022-08-07T04:07:56.244Z,25.30
2022-08-07T04:10:54.001Z,25.30
2022-08-07T04:14:10.856Z,25.30
2022-08-07T04:17:20.921Z,25.30
2022-08-07T04:20:15.383Z,25.20
2022-08-07T04:23:10.117Z,25.20
2022-08-07T04:26:16.883Z,25.20
2022-08-07T04:29:16.502Z,25.20
2022-08-07T04:32:10.956Z,25.20
2022-08-07T04:35:07.071Z,25.20
2022-08-07T04:38:03.782Z,25.20
2022-08-07T04:41:00.436Z,25.20
2022-08-07T04:44:12.542Z,25.20
2022-08-07T04:47:57.280Z,25.20
2022-08-07T04:50:38.739Z,25.20
2022-08-07T04:54:01.991Z,25.20
2022-08-07T04:58:14.296Z,25.20
2022-08-07T05:00:17.332Z,25.20
2022-08-07T05:04:00.978Z,25.20
2022-08-07T05:06:53.041Z,25.20
2022-08-07T05:09:57.129Z,25.20
2022-08-07T05:13:01.441Z,25.20
2022-08-07T05:16:13.131Z,25.20
2022-08-07T05:19:12.937Z,25.20
2022-08-07T05:22:09.377Z,25.20
2022-08-07T05:25:08.776Z,25.20
2022-08-07T05:28:20.530Z,25.20
2022-08-07T05:31:18.469Z,25.20
2022-08-07T05:34:15.852Z,25.20
2022-08-07T05:37:10.500Z,25.20
2022-08-07T05:40:17.949Z,25.20
2022-08-07T05:43:12.183Z,25.20
2022-08-07T05:46:06.853Z,25.20
2022-08-07T05:49:01.322Z,25.20
2022-08-07T05:52:06.921Z,25.20
2022-08-07T05:55:06.760Z,25.20
2022-08-07T05:58:04.877Z,25.20
2022-08-07T06:01:00.813Z,25.20
2022-08-07T06:04:01.139Z,25.20
2022-08-07T06:06:56.421Z,25.20
2022-08-07T06:10:05.555Z,25.20
2022-08-07T06:13:00.742Z,25.20
2022-08-07T06:15:56.524Z,25.20
2022-08-07T06:18:56.012Z,25.20
2022-08-07T06:22:17.021Z,25.20
2022-08-07T06:25:04.873Z,25.20
2022-08-07T06:28:04.245Z,25.10
2022-08-07T06:30:58.654Z,25.20
2022-08-07T06:33:53.707Z,25.20
2022-08-07T06:36:52.230Z,25.20
2022-08-07T06:40:18.253Z,25.20
2022-08-07T06:43:00.344Z,25.20
2022-08-07T06:45:56.348Z,25.20
2022-08-07T06:48:54.315Z,25.20
2022-08-07T06:51:50.343Z,25.30
2022-08-07T06:55:33.998Z,25.30
2022-08-07T06:58:01.769Z,25.30
2022-08-07T07:00:55.399Z,25.30
2022-08-07T07:03:58.081Z,25.30
2022-08-07T07:07:01.228Z,25.30
2022-08-07T07:09:55.013Z,25.30
2022-08-07T07:12:53.324Z,25.20
2022-08-07T07:15:53.304Z,25.20
2022-08-07T07:18:51.049Z,25.20
2022-08-07T07:22:11.994Z,25.20
2022-08-07T07:25:14.152Z,25.10
2022-08-07T07:28:42.130Z,25.10
2022-08-07T07:31:44.479Z,25.20
2022-08-07T07:34:42.049Z,25.20
2022-08-07T07:37:44.341Z,25.20
2022-08-07T07:40:41.594Z,25.20
2022-08-07T07:43:48.189Z,25.20
2022-08-07T07:47:04.271Z,25.20
2022-08-07T07:50:34.580Z,25.20
2022-08-07T07:53:25.773Z,25.20
2022-08-07T07:56:20.157Z,25.20
2022-08-07T07:59:52.151Z,25.20
2022-08-07T08:03:01.309Z,25.20
2022-08-07T08:05:56.291Z,25.30
2022-08-07T08:08:52.055Z,25.30
2022-08-07T08:11:59.823Z,25.30
2022-08-07T08:14:56.487Z,25.30
2022-08-07T08:17:57.120Z,25.30
2022-08-07T08:20:54.081Z,25.30
2022-08-07T08:24:05.087Z,25.40
2022-08-07T08:27:09.666Z,25.40
2022-08-07T08:30:06.474Z,25.40
2022-08-07T08:33:03.752Z,25.40
2022-08-07T08:35:59.281Z,25.40
2022-08-07T08:38:53.635Z,25.40
2022-08-07T08:41:57.522Z,25.40
2022-08-07T08:44:59.971Z,25.50
2022-08-07T08:48:07.502Z,25.50
2022-08-07T08:51:14.482Z,25.50
2022-08-07T08:54:24.690Z,25.50
2022-08-07T08:57:30.173Z,25.60
2022-08-07T09:00:28.746Z,25.60
2022-08-07T09:03:47.470Z,25.60
2022-08-07T09:06:54.403Z,25.60
2022-08-07T09:09:59.786Z,25.60
2022-08-07T09:13:09.324Z,25.70
2022-08-07T09:16:24.818Z,25.60
2022-08-07T09:19:53.006Z,25.70
2022-08-07T09:24:31.834Z,25.70
2022-08-07T09:26:23.597Z,25.70
2022-08-07T09:30:06.239Z,25.80
2022-08-07T09:32:59.148Z,25.80
2022-08-07T09:36:07.868Z,25.80
2022-08-07T09:39:52.703Z,25.80
2022-08-07T09:42:43.835Z,25.80
2022-08-07T09:47:25.279Z,25.80
2022-08-07T09:50:02.687Z,25.90
2022-08-07T09:52:33.880Z,25.90
2022-08-07T09:56:03.185Z,25.90
2022-08-07T09:59:35.665Z,25.90
2022-08-07T10:03:08.322Z,25.90
2022-08-07T10:06:55.641Z,26.00
2022-08-07T10:10:03.632Z,26.00
2022-08-07T10:13:55.339Z,26.00
2022-08-07T10:16:47.607Z,26.00
2022-08-07T10:19:50.288Z,26.00
2022-08-07T10:23:04.148Z,26.10
2022-08-07T10:26:15.944Z,26.10
2022-08-07T10:29:43.203Z,26.10
2022-08-07T10:33:15.125Z,26.10
2022-08-07T10:36:29.563Z,26.10
2022-08-07T10:39:42.105Z,26.10
2022-08-07T10:43:01.796Z,26.10
2022-08-07T10:46:01.193Z,26.20
2022-08-07T10:49:13.536Z,26.20
2022-08-07T10:52:13.316Z,26.20
2022-08-07T10:55:27.160Z,26.10
2022-08-07T10:58:47.646Z,26.10
2022-08-07T11:02:05.287Z,26.20
2022-08-07T11:05:24.693Z,26.20
2022-08-07T11:08:39.048Z,26.20
2022-08-07T11:11:37.817Z,26.20
2022-08-07T11:14:44.698Z,26.20
2022-08-07T11:17:55.302Z,26.20
2022-08-07T11:20:57.406Z,26.20
2022-08-07T11:23:59.229Z,26.20
2022-08-07T11:27:01.236Z,26.20
2022-08-07T11:30:17.695Z,26.20
2022-08-07T11:33:53.925Z,26.20
2022-08-07T11:36:44.719Z,26.20
2022-08-07T11:40:02.005Z,26.20
2022-08-07T11:43:02.315Z,26.20
2022-08-07T11:46:20.499Z,26.20
2022-08-07T11:50:30.012Z,26.20
2022-08-07T11:52:53.061Z,26.20
2022-08-07T11:56:25.188Z,26.20
2022-08-07T12:00:10.083Z,26.20
2022-08-07T12:03:51.002Z,26.20
2022-08-07T12:07:00.990Z,26.20
2022-08-07T12:10:08.358Z,26.20
2022-08-07T12:13:11.600Z,26.20
2022-08-07T12:16:16.269Z,26.20
2022-08-07T12:19:35.715Z,26.20
2022-08-07T12:22:59.092Z,26.20
2022-08-07T12:26:21.385Z,26.20
2022-08-07T12:29:17.196Z,26.20
2022-08-07T12:32:32.153Z,26.20
2022-08-07T12:35:30.973Z,26.20
2022-08-07T12:38:43.016Z,26.10
2022-08-07T12:41:49.465Z,26.10
2022-08-07T12:44:48.711Z,26.10
2022-08-07T12:47:50.150Z,26.10
2022-08-07T12:50:50.479Z,26.10
2022-08-07T12:54:23.753Z,26.10
2022-08-07T12:57:09.807Z,26.10
2022-08-07T13:00:16.504Z,26.10
2022-08-07T13:04:02.013Z,26.10
2022-08-07T13:07:07.418Z,26.10
2022-08-07T13:10:28.361Z,26.10
2022-08-07T13:13:47.864Z,26.00
2022-08-07T13:16:50.998Z,26.00
2022-08-07T13:19:51.997Z,26.00
2022-08-07T13:22:53.523Z,26.00
2022-08-07T13:25:54.151Z,26.00
2022-08-07T13:29:02.965Z,26.00
2022-08-07T13:32:23.804Z,26.00
2022-08-07T13:35:59.907Z,26.00
2022-08-07T13:38:54.199Z,26.00
2022-08-07T13:41:54.757Z,26.00
2022-08-07T13:44:55.500Z,25.90
2022-08-07T13:48:08.793Z,25.90
2022-08-07T13:51:27.590Z,26.00
2022-08-07T13:54:23.485Z,25.90
2022-08-07T13:57:24.053Z,25.90
2022-08-07T14:00:26.669Z,25.90
2022-08-07T14:03:29.917Z,25.90
2022-08-07T14:06:38.855Z,25.90
2022-08-07T14:10:02.987Z,25.90
2022-08-07T14:12:55.685Z,25.90
2022-08-07T14:15:56.999Z,25.90
2022-08-07T14:18:57.143Z,25.90
2022-08-07T14:22:02.207Z,25.90
2022-08-07T14:25:03.355Z,25.90
2022-08-07T14:28:10.937Z,25.90
2022-08-07T14:31:07.541Z,25.80
2022-08-07T14:34:02.053Z,25.90
2022-08-07T14:37:03.189Z,25.90
2022-08-07T14:40:17.071Z,25.90
2022-08-07T14:46:33.428Z,25.90
2022-08-07T14:49:56.507Z,25.80
2022-08-07T14:52:50.199Z,25.80
2022-08-07T14:55:56.358Z,25.80
2022-08-07T14:58:56.529Z,25.80
2022-08-07T15:01:51.585Z,25.80
2022-08-07T15:04:53.223Z,25.80
2022-08-07T15:07:51.967Z,25.80
2022-08-07T15:10:58.628Z,25.80
2022-08-07T15:13:57.814Z,25.80
2022-08-07T15:25:03.050Z,25.80
2022-08-07T15:26:46.879Z,25.80
2022-08-07T15:33:03.731Z,25.80
2022-08-07T15:36:11.673Z,25.80
2022-08-07T15:42:52.084Z,25.80
2022-08-07T15:45:58.254Z,25.80
2022-08-07T15:49:03.632Z,25.80
2022-08-07T15:52:13.652Z,25.80
2022-08-07T15:55:12.438Z,25.80
2022-08-07T15:58:11.660Z,25.70
2022-08-07T16:01:20.227Z,25.80
2022-08-07T16:04:15.813Z,25.80
2022-08-07T16:08:30.284Z,25.80
2022-08-07T16:10:28.792Z,25.80
2022-08-07T16:13:59.301Z,25.80
2022-08-07T16:17:15.070Z,25.70
2022-08-07T16:20:34.054Z,25.70
2022-08-07T16:23:54.701Z,25.70
2022-08-07T16:27:01.267Z,25.70
2022-08-07T16:30:30.659Z,25.70
2022-08-07T16:34:01.599Z,25.80
2022-08-07T16:37:02.771Z,25.70
2022-08-07T16:40:23.417Z,25.80
2022-08-07T16:44:05.759Z,25.70
2022-08-07T16:47:49.739Z,25.70
2022-08-07T16:51:20.748Z,25.70
2022-08-07T16:54:32.895Z,25.70
2022-08-07T16:58:02.479Z,25.70
2022-08-07T17:01:02.058Z,25.70
2022-08-07T17:04:12.584Z,25.70
2022-08-07T17:07:13.602Z,25.70
2022-08-07T17:10:32.169Z,25.70
2022-08-07T17:14:17.379Z,25.70
2022-08-07T17:16:58.701Z,25.70
2022-08-07T17:20:02.990Z,25.70
2022-08-07T17:23:16.945Z,25.70
2022-08-07T17:26:23.162Z,25.70
2022-08-07T17:30:15.564Z,25.70
2022-08-07T17:33:00.874Z,25.70
2022-08-07T17:36:03.622Z,25.70
2022-08-07T17:39:10.652Z,25.70
2022-08-07T17:42:16.114Z,25.70
2022-08-07T17:45:14.854Z,25.70
2022-08-07T17:48:31.047Z,25.70
2022-08-07T17:51:49.392Z,25.70
2022-08-07T17:54:55.413Z,25.70
2022-08-07T17:57:59.299Z,25.60
2022-08-07T18:01:00.159Z,25.60
2022-08-07T18:04:16.289Z,25.60
2022-08-07T18:07:24.092Z,25.60
2022-08-07T18:10:32.322Z,25.60
2022-08-07T18:13:40.751Z,25.60
2022-08-07T18:16:58.833Z,25.60
2022-08-07T18:21:04.308Z,25.60
2022-08-07T18:23:43.733Z,25.60
2022-08-07T18:27:17.358Z,25.50
2022-08-07T18:30:31.417Z,25.50
2022-08-07T18:33:58.231Z,25.60
2022-08-07T18:37:09.259Z,25.50
2022-08-07T18:40:42.423Z,25.60
2022-08-07T18:43:49.881Z,25.50
2022-08-07T18:46:49.191Z,25.60
2022-08-07T18:50:35.024Z,25.50
2022-08-07T18:53:17.376Z,25.60
2022-08-07T18:56:31.749Z,25.60
2022-08-07T18:59:59.047Z,25.60
2022-08-07T19:02:59.932Z,25.60
2022-08-07T19:06:02.226Z,25.60
2022-08-07T19:09:09.282Z,25.60
2022-08-07T19:12:26.362Z,25.60
2022-08-07T19:16:03.251Z,25.60
2022-08-07T19:18:47.158Z,25.60
2022-08-07T19:21:56.281Z,25.60
2022-08-07T19:24:57.067Z,25.60
2022-08-07T19:28:57.946Z,25.60
2022-08-07T19:31:40.529Z,25.60
2022-08-07T19:34:34.271Z,25.60
2022-08-07T19:37:57.033Z,25.60
2022-08-07T19:40:50.004Z,25.60
2022-08-07T19:43:51.207Z,25.60
2022-08-07T19:46:57.844Z,25.60
2022-08-07T19:49:57.193Z,25.60
2022-08-07T19:52:58.727Z,25.60
2022-08-07T19:55:57.988Z,25.60
2022-08-07T19:58:54.450Z,25.60
2022-08-07T20:01:57.161Z,25.60
2022-08-07T20:04:56.131Z,25.60
2022-08-07T20:07:51.100Z,25.60
2022-08-07T20:10:54.396Z,25.60
2022-08-07T20:13:52.967Z,25.50
2022-08-07T20:16:54.526Z,25.50
2022-08-07T20:19:58.435Z,25.60
2022-08-07T20:22:59.137Z,25.60
2022-08-07T20:25:56.476Z,25.60
2022-08-07T20:28:55.577Z,25.60
2022-08-07T20:31:53.966Z,25.60
2022-08-07T20:34:51.126Z,25.60
2022-08-07T20:37:57.781Z,25.60
2022-08-07T20:40:57.214Z,25.60
2022-08-07T20:43:53.880Z,25.60
2022-08-07T20:47:05.639Z,25.60
2022-08-07T20:50:03.798Z,25.60
2022-08-07T20:52:57.781Z,25.60
2022-08-07T20:55:55.525Z,25.60
2022-08-07T20:58:53.237Z,25.60
2022-08-07T21:01:58.425Z,25.60
2022-08-07T21:04:55.162Z,25.60
2022-08-07T21:07:53.373Z,25.50
2022-08-07T21:10:49.732Z,25.60
2022-08-07T21:14:29.326Z,25.60
2022-08-07T21:18:06.173Z,25.50
2022-08-07T21:20:29.799Z,25.60
2022-08-07T21:23:35.672Z,25.60
2022-08-07T21:26:51.131Z,25.60
2022-08-07T21:29:53.526Z,25.60
2022-08-07T21:32:56.389Z,25.60
2022-08-07T21:36:05.422Z,25.60
2022-08-07T21:39:46.853Z,25.60
2022-08-07T21:42:42.506Z,25.60
2022-08-07T21:46:10.136Z,25.60
2022-08-07T21:49:14.932Z,25.60
2022-08-07T21:52:17.526Z,25.60
2022-08-07T21:55:38.048Z,25.50
2022-08-07T21:58:39.417Z,25.50
2022-08-07T22:02:11.341Z,25.60
2022-08-07T22:05:01.166Z,25.50
2022-08-07T22:07:59.435Z,25.50
2022-08-07T22:10:59.530Z,25.50
2022-08-07T22:13:57.387Z,25.50
2022-08-07T22:16:57.837Z,25.50
2022-08-07T22:20:08.683Z,25.50
2022-08-07T22:23:23.709Z,25.50
2022-08-07T22:26:22.753Z,25.50
2022-08-07T22:29:34.045Z,25.50
2022-08-07T22:32:37.709Z,25.50
2022-08-07T22:35:42.820Z,25.50
2022-08-07T22:38:48.138Z,25.50
2022-08-07T22:42:04.118Z,25.50
2022-08-07T22:45:21.789Z,25.50
2022-08-07T22:48:54.849Z,25.50
2022-08-07T22:52:10.114Z,25.50
2022-08-07T22:55:37.582Z,25.50
2022-08-07T22:58:57.531Z,25.50
2022-08-07T23:02:22.664Z,25.50
2022-08-07T23:06:09.401Z,25.50
2022-08-07T23:10:05.005Z,25.50
2022-08-07T23:12:48.356Z,25.50
2022-08-07T23:16:05.580Z,25.50
2022-08-07T23:19:38.919Z,25.50
2022-08-07T23:22:56.345Z,25.50
2022-08-07T23:26:01.320Z,25.50
2022-08-07T23:29:43.758Z,25.50
2022-08-07T23:34:34.749Z,25.50
2022-08-07T23:36:36.138Z,25.50
2022-08-07T23:39:41.321Z,25.40
2022-08-07T23:42:53.333Z,25.40
2022-08-07T23:46:03.481Z,25.40
2022-08-07T23:49:50.708Z,25.50
2022-08-07T23:53:01.231Z,25.40
2022-08-07T23:56:13.088Z,25.40
